createdAt,value
2022-09-11T00:02:36.862Z,6.69
2022-09-11T00:07:43.760Z,5.86
2022-09-11T00:12:50.885Z,8.51
2022-09-11T00:17:57.781Z,8.19
2022-09-11T00:23:04.858Z,6.29
2022-09-11T00:28:13.005Z,7.05
2022-09-11T00:33:18.983Z,5.55
2022-09-11T00:38:26.186Z,5.55
2022-09-11T00:43:33.125Z,6.38
2022-09-11T00:48:40.089Z,5.41
2022-09-11T00:53:47.026Z,6.88
2022-09-11T00:58:54.190Z,5.96
2022-09-11T01:04:01.079Z,6.07
2022-09-11T01:09:08.087Z,5.36
2022-09-11T01:14:15.005Z,6.70
2022-09-11T01:19:22.110Z,6.71
2022-09-11T01:24:29.038Z,7.25
2022-09-11T01:29:36.042Z,8.42
2022-09-11T01:34:42.971Z,6.96
2022-09-11T01:39:50.164Z,6.71
2022-09-11T01:44:56.981Z,7.62
2022-09-11T01:50:04.002Z,6.56
2022-09-11T01:55:10.969Z,7.57
2022-09-11T02:00:18.219Z,8.00
2022-09-11T02:05:25.160Z,8.44
2022-09-11T02:10:32.321Z,6.62
2022-09-11T02:15:39.301Z,7.07
2022-09-11T02:20:46.451Z,10.96
2022-09-11T02:25:53.376Z,21.79
2022-09-11T02:31:00.512Z,11.92
2022-09-11T02:36:07.431Z,8.01
2022-09-11T02:41:14.551Z,9.13
2022-09-11T02:46:21.505Z,10.53
2022-09-11T02:51:28.580Z,7.80
2022-09-11T02:56:35.517Z,11.08
2022-09-11T03:01:42.615Z,10.57
2022-09-11T03:06:49.497Z,10.13
2022-09-11T03:11:56.567Z,12.32
2022-09-11T03:17:03.583Z,9.49
2022-09-11T03:22:10.597Z,13.52
2022-09-11T03:27:17.649Z,11.17
2022-09-11T03:32:24.770Z,7.23
2022-09-11T03:37:31.756Z,8.36
2022-09-11T03:42:38.705Z,5.51
2022-09-11T03:47:45.740Z,6.26
2022-09-11T03:52:52.635Z,5.71
2022-09-11T03:57:59.729Z,6.14
2022-09-11T04:03:06.724Z,5.72
2022-09-11T04:08:13.847Z,5.74
2022-09-11T04:13:20.722Z,8.98
2022-09-11T04:18:27.845Z,6.71
2022-09-11T04:23:34.816Z,6.19
2022-09-11T04:28:41.917Z,8.90
2022-09-11T04:33:48.805Z,4.47
2022-09-11T04:38:55.962Z,5.71
2022-09-11T04:44:05.461Z,6.95
2022-09-11T04:49:09.396Z,13.19
2022-09-11T04:54:16.321Z,6.40
2022-09-11T04:59:23.551Z,6.42
2022-09-11T05:04:30.442Z,8.02
2022-09-11T05:09:37.496Z,7.68
2022-09-11T05:14:44.387Z,6.43
2022-09-11T05:19:51.362Z,7.09
2022-09-11T05:24:58.344Z,6.34
2022-09-11T05:30:05.437Z,5.67
2022-09-11T05:35:12.682Z,5.93
2022-09-11T05:40:19.850Z,5.51
2022-09-11T05:45:26.815Z,5.05
2022-09-11T05:50:33.913Z,6.62
2022-09-11T05:55:40.811Z,4.83
2022-09-11T06:00:47.760Z,6.66
2022-09-11T06:05:54.656Z,8.21
2022-09-11T06:11:01.735Z,6.30
2022-09-11T06:16:08.741Z,7.11
2022-09-11T06:21:15.634Z,5.94
2022-09-11T06:26:22.647Z,11.48
2022-09-11T06:31:29.762Z,9.53
2022-09-11T06:36:36.694Z,6.18
2022-09-11T06:41:43.696Z,5.59
2022-09-11T06:46:50.679Z,6.21
2022-09-11T06:51:57.854Z,6.50
2022-09-11T06:57:04.832Z,5.91
2022-09-11T07:02:12.138Z,4.67
2022-09-11T07:07:19.120Z,8.64
2022-09-11T07:17:35.501Z,6.27
2022-09-11T07:22:42.529Z,7.46
2022-09-11T07:27:49.703Z,7.61
2022-09-11T07:32:56.660Z,6.68
2022-09-11T07:38:03.835Z,5.57
2022-09-11T07:43:10.786Z,6.92
2022-09-11T07:48:18.731Z,5.39
2022-09-11T07:53:25.759Z,6.23
2022-09-11T07:58:32.706Z,5.88
2022-09-11T08:03:39.781Z,6.56
2022-09-11T08:08:46.792Z,5.58
2022-09-11T08:13:53.713Z,6.31
2022-09-11T08:19:00.684Z,6.77
2022-09-11T08:24:07.687Z,5.06
2022-09-11T08:29:14.614Z,3.98
2022-09-11T08:34:21.649Z,4.47
2022-09-11T08:39:28.637Z,5.44
2022-09-11T08:44:39.119Z,3.21
2022-09-11T08:49:42.103Z,3.33
2022-09-11T08:54:49.224Z,2.65
2022-09-11T08:59:56.166Z,4.45
2022-09-11T09:05:03.222Z,3.03
2022-09-11T09:10:10.345Z,3.98
2022-09-11T09:15:17.397Z,2.89
2022-09-11T09:20:24.461Z,2.18
2022-09-11T09:25:31.606Z,2.53
2022-09-11T09:30:38.620Z,2.05
2022-09-11T09:35:45.717Z,3.36
2022-09-11T09:40:52.779Z,2.42
2022-09-11T09:45:59.786Z,2.35
2022-09-11T09:51:06.716Z,3.36
2022-09-11T09:56:13.776Z,2.32
2022-09-11T10:01:23.325Z,2.13
2022-09-11T10:06:30.387Z,4.06
2022-09-11T10:11:37.311Z,2.51
2022-09-11T10:16:44.403Z,1.89
2022-09-11T10:21:51.369Z,4.47
2022-09-11T10:26:58.477Z,3.16
2022-09-11T10:32:05.433Z,2.39
2022-09-11T10:37:12.472Z,2.60
2022-09-11T10:42:19.411Z,1.65
2022-09-11T10:47:26.416Z,1.90
2022-09-11T10:52:33.420Z,1.88
2022-09-11T10:57:40.489Z,2.51
2022-09-11T11:02:47.439Z,2.23
2022-09-11T11:07:54.571Z,1.86
2022-09-11T11:13:01.803Z,2.08
2022-09-11T11:18:08.995Z,1.90
2022-09-11T11:23:16.609Z,1.83
2022-09-11T11:28:22.721Z,1.84
2022-09-11T11:33:29.716Z,1.64
2022-09-11T11:38:36.682Z,2.35
2022-09-11T11:43:43.834Z,2.35
2022-09-11T11:48:50.754Z,7.42
2022-09-11T11:53:57.720Z,1.52
2022-09-11T11:59:04.758Z,1.84
2022-09-11T12:04:11.848Z,1.95
2022-09-11T12:09:18.983Z,1.69
2022-09-11T12:14:26.076Z,3.56
2022-09-11T12:19:33.194Z,3.18
2022-09-11T12:24:40.543Z,1.71
2022-09-11T12:29:48.801Z,2.33
2022-09-11T12:34:55.817Z,1.69
2022-09-11T12:40:03.347Z,2.57
2022-09-11T12:45:10.684Z,2.35
2022-09-11T12:50:20.474Z,1.67
2022-09-11T12:55:27.703Z,2.35
2022-09-11T13:00:35.756Z,1.75
2022-09-11T13:05:42.962Z,2.72
2022-09-11T13:10:50.208Z,2.35
2022-09-11T13:15:57.390Z,1.85
2022-09-11T13:21:04.289Z,2.16
2022-09-11T13:26:14.165Z,1.34
2022-09-11T13:31:21.194Z,1.61
2022-09-11T13:36:28.532Z,1.81
2022-09-11T13:41:35.742Z,2.63
2022-09-11T13:46:42.936Z,2.45
2022-09-11T13:51:49.971Z,3.82
2022-09-11T13:56:57.189Z,3.10
2022-09-11T14:02:04.104Z,3.79
2022-09-11T14:07:11.467Z,2.42
2022-09-11T14:12:18.589Z,3.21
2022-09-11T14:17:25.604Z,2.02
2022-09-11T14:22:32.772Z,3.13
2022-09-11T14:27:39.870Z,2.20
2022-09-11T14:32:48.546Z,2.09
2022-09-11T14:37:55.610Z,2.71
2022-09-11T14:43:02.722Z,3.56
2022-09-11T14:48:03.755Z,2.20
2022-09-11T14:53:10.942Z,1.54
2022-09-11T14:58:17.926Z,2.33
2022-09-11T15:03:25.013Z,1.33
2022-09-11T15:08:31.987Z,1.76
2022-09-11T15:13:52.608Z,2.07
2022-09-11T15:18:45.739Z,2.94
2022-09-11T15:23:52.758Z,2.24
2022-09-11T15:28:59.722Z,4.22
2022-09-11T15:34:06.893Z,1.99
2022-09-11T15:39:13.834Z,3.62
2022-09-11T15:44:20.986Z,2.93
2022-09-11T15:49:27.987Z,1.52
2022-09-11T15:54:35.056Z,1.61
2022-09-11T15:59:42.071Z,2.41
2022-09-11T16:04:53.425Z,1.76
2022-09-11T16:09:55.692Z,2.93
2022-09-11T16:15:02.804Z,1.76
2022-09-11T16:20:09.759Z,2.26
2022-09-11T16:25:16.895Z,2.80
2022-09-11T16:30:42.596Z,2.70
2022-09-11T16:35:31.020Z,3.72
2022-09-11T16:40:37.957Z,6.44
2022-09-11T16:45:46.137Z,4.52
2022-09-11T16:50:53.154Z,3.15
2022-09-11T16:56:01.384Z,5.25
2022-09-11T17:01:08.397Z,3.68
2022-09-11T17:06:15.462Z,4.49
2022-09-11T17:11:22.628Z,5.27
2022-09-11T17:16:29.676Z,4.39
2022-09-11T17:21:36.557Z,3.50
2022-09-11T17:26:47.436Z,5.19
2022-09-11T17:31:44.436Z,3.42
2022-09-11T17:36:51.566Z,4.08
2022-09-11T17:41:59.057Z,4.08
2022-09-11T17:47:06.179Z,5.23
2022-09-11T17:52:13.242Z,5.68
2022-09-11T17:57:20.370Z,3.90
2022-09-11T18:02:27.392Z,3.99
2022-09-11T18:07:37.263Z,4.81
2022-09-11T18:12:44.244Z,3.92
2022-09-11T18:17:51.339Z,3.72
2022-09-11T18:22:59.665Z,4.71
2022-09-11T18:28:05.081Z,5.94
2022-09-11T18:33:12.162Z,6.59
2022-09-11T18:38:19.236Z,4.51
2022-09-11T18:43:26.448Z,5.56
2022-09-11T18:48:33.481Z,6.36
2022-09-11T18:53:43.165Z,3.56
2022-09-11T18:58:50.263Z,3.97
2022-09-11T19:03:57.420Z,4.06
2022-09-11T19:09:08.400Z,4.33
2022-09-11T19:14:05.566Z,4.19
2022-09-11T19:19:12.585Z,4.15
2022-09-11T19:24:19.892Z,4.98
2022-09-11T19:29:26.927Z,4.16
2022-09-11T19:34:38.561Z,5.09
2022-09-11T19:39:40.687Z,5.39
2022-09-11T19:44:47.714Z,4.62
2022-09-11T19:49:54.710Z,7.08
2022-09-11T19:55:02.046Z,5.09
2022-09-11T20:00:09.075Z,6.06
2022-09-11T20:05:16.251Z,6.27
2022-09-11T20:10:23.232Z,9.74
2022-09-11T20:15:30.354Z,5.66
2022-09-11T20:20:37.306Z,5.44
2022-09-11T20:25:44.341Z,4.34
2022-09-11T20:30:51.306Z,7.16
2022-09-11T20:36:00.363Z,4.26
2022-09-11T20:41:04.845Z,5.65
2022-09-11T20:46:13.219Z,5.37
2022-09-11T20:51:20.120Z,6.50
2022-09-11T20:56:27.245Z,4.92
2022-09-11T21:01:34.283Z,6.89
2022-09-11T21:06:41.360Z,5.23
2022-09-11T21:11:48.345Z,4.78
2022-09-11T21:16:55.510Z,6.16
2022-09-11T21:22:02.495Z,5.40
2022-09-11T21:27:09.739Z,7.08
2022-09-11T21:32:16.721Z,6.39
2022-09-11T21:37:23.870Z,5.72
2022-09-11T21:42:30.832Z,5.84
2022-09-11T21:47:38.004Z,9.21
2022-09-11T21:52:44.985Z,7.31
2022-09-11T21:57:52.080Z,8.38
2022-09-11T22:02:59.067Z,10.17
2022-09-11T22:08:06.114Z,6.64
2022-09-11T22:13:13.041Z,5.38
2022-09-11T22:18:22.617Z,5.43
2022-09-11T22:23:29.637Z,5.29
2022-09-11T22:28:36.929Z,5.29
2022-09-11T22:33:44.090Z,4.75
2022-09-11T22:38:51.137Z,5.25
2022-09-11T22:43:58.215Z,5.93
2022-09-11T22:49:05.419Z,5.51
2022-09-11T22:54:12.393Z,5.83
2022-09-11T22:59:19.505Z,8.55
2022-09-11T23:04:26.565Z,40.14
2022-09-11T23:09:33.753Z,33.54
2022-09-11T23:14:40.698Z,14.18
2022-09-11T23:19:47.794Z,16.67
2022-09-11T23:24:54.811Z,15.84
2022-09-11T23:30:01.925Z,11.82
2022-09-11T23:35:08.910Z,35.79
2022-09-11T23:40:16.033Z,18.48
2022-09-11T23:45:23.080Z,23.56
2022-09-11T23:50:30.037Z,13.94
2022-09-11T23:55:40.574Z,12.30
